Time;durP1;ratioP1;P1;durP2;ratioP2;P2;SDS_P1;SDS_P2;PMS_P1;PMS_P2;Temp;Humidity;BMP_temperature;BMP_pressure;BME280_temperature;BME280_humidity;BME280_pressure;Samples;Min_cycle;Max_cycle;Signal;HPM_P1;HPM_P2
2022/12/30 00:01:19;;;;;;;;;;;13.70;61.50;;;;;;5008037;28;20357;-92
2022/12/30 00:03:45;;;;;;;;;;;13.70;61.60;;;;;;5010537;28;19909;-89
2022/12/30 00:06:14;;;;;;;;;;;13.70;61.60;;;;;;5027665;28;19924;-90
2022/12/30 00:08:47;;;;;;;;;;;13.50;61.30;;;;;;5013224;28;19910;-92
2022/12/30 00:11:18;;;;;;;;;;;13.50;61.60;;;;;;5010351;28;19960;-89
2022/12/30 00:33:07;;;;;;;;;;;13.40;62.60;;;;;;4993045;28;19960;-91
2022/12/30 00:35:33;;;;;;;;;;;13.50;62.50;;;;;;4992479;28;20320;-88
2022/12/30 00:37:58;;;;;;;;;;;13.50;62.50;;;;;;4990875;28;19921;-90
2022/12/30 00:40:24;;;;;;;;;;;13.60;62.40;;;;;;4992299;28;19921;-91
2022/12/30 00:43:08;;;;;;;;;;;13.60;62.30;;;;;;5006944;28;19992;-90
2022/12/30 00:45:34;;;;;;;;;;;13.60;62.40;;;;;;5011296;28;19960;-88
2022/12/30 00:48:00;;;;;;;;;;;13.70;62.50;;;;;;5013684;28;19937;-88
2022/12/30 00:56:09;;;;;;;;;;;13.70;61.90;;;;;;5011338;28;19944;-91
2022/12/30 00:58:34;;;;;;;;;;;13.70;61.90;;;;;;5010198;28;19937;-90
2022/12/30 01:01:00;;;;;;;;;;;13.70;61.90;;;;;;5011795;28;19918;-91
2022/12/30 01:03:25;;;;;;;;;;;13.70;62.10;;;;;;5011227;28;19914;-87
2022/12/30 01:05:51;;;;;;;;;;;13.70;61.90;;;;;;5009670;28;19917;-90
2022/12/30 01:08:16;;;;;;;;;;;13.80;62.10;;;;;;5011342;28;19979;-88
2022/12/30 01:10:42;;;;;;;;;;;13.80;61.80;;;;;;5011714;28;19917;-89
2022/12/30 01:13:08;;;;;;;;;;;13.80;61.90;;;;;;5011332;28;19933;-91
2022/12/30 01:15:33;;;;;;;;;;;13.90;61.60;;;;;;5012638;28;19922;-89
2022/12/30 01:17:59;;;;;;;;;;;13.80;61.40;;;;;;5010276;28;19929;-89
2022/12/30 01:20:25;;;;;;;;;;;13.90;61.50;;;;;;5010649;28;20260;-90
2022/12/30 01:22:50;;;;;;;;;;;13.90;61.20;;;;;;5013689;28;19914;-89
2022/12/30 01:25:16;;;;;;;;;;;13.90;61.40;;;;;;5010018;28;19914;-90
2022/12/30 01:27:41;;;;;;;;;;;13.90;61.50;;;;;;5012038;28;20386;-91
2022/12/30 01:30:07;;;;;;;;;;;13.90;61.30;;;;;;5013213;28;20314;-89
2022/12/30 01:32:35;;;;;;;;;;;13.90;61.20;;;;;;5012927;28;20552;-91
2022/12/30 01:35:00;;;;;;;;;;;13.90;61.20;;;;;;5014103;28;19929;-91
2022/12/30 01:37:26;;;;;;;;;;;13.90;61.20;;;;;;5012086;28;19936;-89
2022/12/30 01:39:51;;;;;;;;;;;13.90;61.40;;;;;;5010829;28;19923;-91
2022/12/30 01:42:19;;;;;;;;;;;13.90;61.10;;;;;;5009680;28;19913;-89
2022/12/30 01:44:47;;;;;;;;;;;13.80;61.20;;;;;;5010111;28;19920;-90
2022/12/30 01:47:32;;;;;;;;;;;13.90;61.30;;;;;;5013182;28;19993;-90
2022/12/30 01:50:17;;;;;;;;;;;13.80;61.40;;;;;;5010555;28;19928;-88
2022/12/30 01:52:46;;;;;;;;;;;13.80;61.10;;;;;;4983251;28;19920;-88
2022/12/30 01:55:15;;;;;;;;;;;13.80;61.00;;;;;;5014205;28;20447;-90
2022/12/30 01:57:42;;;;;;;;;;;13.80;61.30;;;;;;5016745;28;19949;-87
2022/12/30 02:00:08;;;;;;;;;;;13.80;61.20;;;;;;5011740;28;20353;-90
2022/12/30 02:02:34;;;;;;;;;;;13.80;61.20;;;;;;5010254;28;19992;-89
2022/12/30 02:05:01;;;;;;;;;;;13.80;61.20;;;;;;5010798;28;20786;-91
2022/12/30 02:07:34;;;;;;;;;;;13.70;61.10;;;;;;5011651;28;19937;-91
2022/12/30 02:09:59;;;;;;;;;;;13.70;61.10;;;;;;5014449;28;19949;-90
2022/12/30 02:12:27;;;;;;;;;;;13.70;61.00;;;;;;5008173;28;19955;-90
2022/12/30 02:14:53;;;;;;;;;;;13.60;60.90;;;;;;5000877;28;20020;-87
2022/12/30 02:17:41;;;;;;;;;;;13.60;60.90;;;;;;5010362;28;20375;-89
2022/12/30 02:20:29;;;;;;;;;;;13.50;61.10;;;;;;4991396;28;19937;-89
2022/12/30 02:23:13;;;;;;;;;;;13.50;61.20;;;;;;4992837;28;19914;-90
2022/12/30 02:25:57;;;;;;;;;;;13.50;61.10;;;;;;4993523;28;19984;-91
2022/12/30 02:28:49;;;;;;;;;;;13.50;61.20;;;;;;4994707;28;19917;-90
2022/12/30 02:31:30;;;;;;;;;;;13.50;61.50;;;;;;5007690;28;19925;-92
2022/12/30 02:33:55;;;;;;;;;;;13.60;61.70;;;;;;5013210;28;19975;-89
2022/12/30 02:36:41;;;;;;;;;;;13.70;61.60;;;;;;5013666;28;19922;-89
2022/12/30 02:39:25;;;;;;;;;;;13.70;61.70;;;;;;5015818;28;20327;-89
2022/12/30 02:44:56;;;;;;;;;;;13.70;60.90;;;;;;5016607;28;19920;-91
2022/12/30 02:47:27;;;;;;;;;;;13.70;61.10;;;;;;5014684;28;19980;-91
2022/12/30 02:52:49;;;;;;;;;;;13.70;61.10;;;;;;5014354;28;19959;-91
2022/12/30 02:55:16;;;;;;;;;;;13.70;61.00;;;;;;5012958;28;20032;-89
2022/12/30 02:57:41;;;;;;;;;;;13.70;61.20;;;;;;5015234;28;20034;-89
2022/12/30 03:05:49;;;;;;;;;;;13.70;60.90;;;;;;5014136;28;19925;-90
2022/12/30 03:08:20;;;;;;;;;;;13.70;60.90;;;;;;5015151;28;20012;-90
2022/12/30 03:11:15;;;;;;;;;;;13.70;60.90;;;;;;5012346;28;19948;-88
2022/12/30 03:13:45;;;;;;;;;;;13.60;60.70;;;;;;5013003;28;19983;-89
2022/12/30 03:16:13;;;;;;;;;;;13.50;60.10;;;;;;5012941;28;19956;-87
2022/12/30 03:18:40;;;;;;;;;;;13.30;59.70;;;;;;5012373;28;20008;-87
2022/12/30 03:21:06;;;;;;;;;;;13.20;59.80;;;;;;5014623;28;20280;-90
2022/12/30 03:29:02;;;;;;;;;;;12.80;59.90;;;;;;5013766;28;19924;-89
2022/12/30 03:31:28;;;;;;;;;;;12.70;60.10;;;;;;5011231;28;19917;-91
2022/12/30 03:33:54;;;;;;;;;;;12.70;60.10;;;;;;5012224;28;19910;-90
2022/12/30 03:36:22;;;;;;;;;;;12.50;60.20;;;;;;5011339;28;20097;-88
2022/12/30 03:38:51;;;;;;;;;;;12.50;60.10;;;;;;5013009;28;19917;-87
2022/12/30 03:41:18;;;;;;;;;;;12.40;60.20;;;;;;5015004;28;19918;-89
2022/12/30 03:43:43;;;;;;;;;;;12.40;60.80;;;;;;5011740;28;19913;-88
2022/12/30 03:46:09;;;;;;;;;;;12.40;60.60;;;;;;5012284;28;19925;-90
2022/12/30 03:48:34;;;;;;;;;;;12.30;60.60;;;;;;5012939;28;19910;-89
2022/12/30 03:51:00;;;;;;;;;;;12.20;60.40;;;;;;5013798;28;19952;-90
2022/12/30 03:53:25;;;;;;;;;;;12.20;60.60;;;;;;5011124;28;19956;-90
2022/12/30 03:55:51;;;;;;;;;;;12.10;60.40;;;;;;5012696;28;19931;-89
2022/12/30 03:58:17;;;;;;;;;;;12.00;60.00;;;;;;5012112;28;20369;-89
2022/12/30 04:00:42;;;;;;;;;;;11.90;60.00;;;;;;5010460;28;19914;-88
2022/12/30 04:03:07;;;;;;;;;;;11.90;60.10;;;;;;5012719;28;19953;-87
2022/12/30 04:05:33;;;;;;;;;;;11.80;60.10;;;;;;5012702;28;19913;-89
2022/12/30 04:07:58;;;;;;;;;;;11.70;60.10;;;;;;5012643;28;20384;-89
2022/12/30 04:10:24;;;;;;;;;;;11.70;60.10;;;;;;5012665;28;20375;-87
2022/12/30 04:12:49;;;;;;;;;;;11.60;60.50;;;;;;5012435;28;19972;-90
2022/12/30 04:15:15;;;;;;;;;;;11.70;61.00;;;;;;5010748;28;19967;-90
2022/12/30 04:17:40;;;;;;;;;;;11.70;61.70;;;;;;5013859;28;19984;-88
2022/12/30 04:20:06;;;;;;;;;;;11.80;62.10;;;;;;5012369;28;19913;-88
2022/12/30 04:22:32;;;;;;;;;;;12.00;62.50;;;;;;5010870;28;19918;-89
2022/12/30 04:24:57;;;;;;;;;;;12.10;62.60;;;;;;5011036;28;19913;-89
2022/12/30 04:27:22;;;;;;;;;;;12.20;62.60;;;;;;5012314;28;19959;-87
2022/12/30 04:29:48;;;;;;;;;;;12.40;62.60;;;;;;5011766;28;20380;-89
2022/12/30 04:32:13;;;;;;;;;;;12.50;62.40;;;;;;5012689;28;19965;-89
2022/12/30 04:34:39;;;;;;;;;;;12.60;62.40;;;;;;5011921;28;20020;-90
2022/12/30 04:37:04;;;;;;;;;;;12.70;62.40;;;;;;5011858;28;19919;-89
2022/12/30 04:39:30;;;;;;;;;;;12.70;62.10;;;;;;5011119;28;19914;-87
2022/12/30 04:41:55;;;;;;;;;;;12.80;62.00;;;;;;5012475;28;19921;-87
2022/12/30 04:44:20;;;;;;;;;;;12.80;61.60;;;;;;5010629;28;20277;-89
2022/12/30 04:46:46;;;;;;;;;;;12.80;61.70;;;;;;5009838;28;19913;-88
2022/12/30 04:49:11;;;;;;;;;;;12.80;61.40;;;;;;5011173;28;20295;-90
2022/12/30 04:51:37;;;;;;;;;;;12.70;61.00;;;;;;5010487;28;19913;-87
2022/12/30 04:54:02;;;;;;;;;;;12.60;60.70;;;;;;5010926;28;20065;-90
2022/12/30 04:56:28;;;;;;;;;;;12.50;60.40;;;;;;5010692;28;20364;-89
2022/12/30 04:58:54;;;;;;;;;;;12.40;60.40;;;;;;5009747;28;20357;-90
2022/12/30 05:01:19;;;;;;;;;;;12.30;60.40;;;;;;5010920;28;20380;-88
2022/12/30 05:03:45;;;;;;;;;;;12.30;60.40;;;;;;5009794;28;19909;-90
2022/12/30 05:06:10;;;;;;;;;;;12.20;60.30;;;;;;5009610;28;19921;-89
2022/12/30 05:08:36;;;;;;;;;;;12.10;60.10;;;;;;5009629;28;19949;-89
2022/12/30 05:11:01;;;;;;;;;;;12.00;60.10;;;;;;5009829;28;19949;-88
2022/12/30 05:13:26;;;;;;;;;;;11.90;60.10;;;;;;5009688;28;19909;-87
2022/12/30 05:15:52;;;;;;;;;;;11.80;60.10;;;;;;5009206;28;19917;-89
2022/12/30 05:18:17;;;;;;;;;;;11.80;60.20;;;;;;5009103;28;19921;-89
2022/12/30 05:20:43;;;;;;;;;;;11.70;60.10;;;;;;5009242;28;19909;-89
2022/12/30 05:26:13;;;;;;;;;;;11.60;60.10;;;;;;5009409;28;19917;-88
2022/12/30 05:28:38;;;;;;;;;;;11.50;60.50;;;;;;5010410;28;19943;-88
2022/12/30 05:31:04;;;;;;;;;;;11.50;61.00;;;;;;5010659;28;20012;-89
2022/12/30 05:33:29;;;;;;;;;;;11.50;60.80;;;;;;5009297;28;19909;-89
2022/12/30 05:35:55;;;;;;;;;;;11.50;60.70;;;;;;5009418;28;19933;-88
2022/12/30 05:38:20;;;;;;;;;;;11.40;60.50;;;;;;5010755;28;19963;-88
2022/12/30 05:40:45;;;;;;;;;;;11.30;60.50;;;;;;5008984;28;19969;-87
2022/12/30 05:43:11;;;;;;;;;;;11.30;60.40;;;;;;5010471;28;20019;-88
2022/12/30 05:45:36;;;;;;;;;;;11.30;60.30;;;;;;5013151;28;20031;-89
2022/12/30 05:48:02;;;;;;;;;;;11.20;60.30;;;;;;5010545;28;19917;-88
2022/12/30 05:50:27;;;;;;;;;;;11.10;60.40;;;;;;5011650;28;20469;-87
2022/12/30 05:52:53;;;;;;;;;;;11.10;60.40;;;;;;5012457;28;20394;-89
2022/12/30 05:55:18;;;;;;;;;;;11.10;60.40;;;;;;5011663;28;20021;-89
2022/12/30 05:57:44;;;;;;;;;;;11.10;60.50;;;;;;5013884;28;19975;-87
2022/12/30 06:00:09;;;;;;;;;;;11.00;60.60;;;;;;5013782;28;20357;-89
2022/12/30 06:02:35;;;;;;;;;;;11.00;60.70;;;;;;5015858;28;20395;-87
2022/12/30 06:05:00;;;;;;;;;;;11.00;60.50;;;;;;5015072;28;19914;-88
2022/12/30 06:07:25;;;;;;;;;;;11.00;60.70;;;;;;5013088;28;20541;-88
2022/12/30 06:09:51;;;;;;;;;;;11.00;60.50;;;;;;5013337;28;19918;-88
2022/12/30 06:12:16;;;;;;;;;;;10.90;60.50;;;;;;5013966;28;19913;-90
2022/12/30 06:14:42;;;;;;;;;;;10.80;60.50;;;;;;5015641;28;19922;-89
2022/12/30 06:17:07;;;;;;;;;;;10.80;60.50;;;;;;5014025;28;19956;-89
2022/12/30 06:19:33;;;;;;;;;;;10.80;60.40;;;;;;5013996;28;19913;-89
2022/12/30 06:21:58;;;;;;;;;;;10.80;60.40;;;;;;5015496;28;19917;-88
2022/12/30 06:24:24;;;;;;;;;;;10.80;60.50;;;;;;5011443;28;19918;-88
2022/12/30 06:26:49;;;;;;;;;;;10.80;60.50;;;;;;5013525;28;20406;-89
2022/12/30 06:29:15;;;;;;;;;;;10.70;60.30;;;;;;5012691;28;19917;-90
2022/12/30 06:31:40;;;;;;;;;;;10.70;60.40;;;;;;5013485;28;20611;-89
2022/12/30 06:34:05;;;;;;;;;;;10.70;60.50;;;;;;5011235;28;19929;-88
2022/12/30 06:36:31;;;;;;;;;;;10.70;60.50;;;;;;4994115;28;19918;-89
2022/12/30 06:38:56;;;;;;;;;;;10.60;60.80;;;;;;5000728;28;19925;-89
2022/12/30 06:41:22;;;;;;;;;;;10.60;60.90;;;;;;5012664;28;19925;-89
2022/12/30 06:43:47;;;;;;;;;;;10.60;61.10;;;;;;5012509;28;19910;-90
2022/12/30 06:46:13;;;;;;;;;;;10.70;60.80;;;;;;5012779;28;19917;-89
2022/12/30 06:48:38;;;;;;;;;;;10.60;60.60;;;;;;5011021;28;19920;-90
2022/12/30 06:51:04;;;;;;;;;;;10.60;60.70;;;;;;5002508;28;19922;-88
2022/12/30 06:53:29;;;;;;;;;;;10.60;60.60;;;;;;5010216;28;19924;-90
2022/12/30 06:55:55;;;;;;;;;;;10.60;60.80;;;;;;5003640;28;19936;-90
2022/12/30 06:58:20;;;;;;;;;;;10.60;60.80;;;;;;5008352;28;20364;-90
2022/12/30 07:00:46;;;;;;;;;;;10.60;60.90;;;;;;5007623;28;19918;-90
2022/12/30 07:03:11;;;;;;;;;;;10.60;60.90;;;;;;5007882;28;19928;-90
2022/12/30 07:05:37;;;;;;;;;;;10.60;61.00;;;;;;5007928;28;19917;-89
2022/12/30 07:08:02;;;;;;;;;;;10.60;61.00;;;;;;5007817;28;19994;-88
2022/12/30 07:10:30;;;;;;;;;;;10.60;60.90;;;;;;5010001;28;19959;-90
2022/12/30 07:12:55;;;;;;;;;;;10.70;60.80;;;;;;5008958;28;19960;-90
2022/12/30 07:15:21;;;;;;;;;;;10.70;60.60;;;;;;5008158;28;20337;-90
2022/12/30 07:17:46;;;;;;;;;;;10.70;60.50;;;;;;5008701;28;20440;-89
2022/12/30 07:20:12;;;;;;;;;;;10.60;60.90;;;;;;5008481;28;19940;-90
2022/12/30 07:22:38;;;;;;;;;;;10.60;61.00;;;;;;5012035;28;19918;-89
2022/12/30 07:25:04;;;;;;;;;;;10.70;60.90;;;;;;5009693;28;19928;-89
2022/12/30 07:27:29;;;;;;;;;;;10.70;60.90;;;;;;5009008;28;19929;-90
2022/12/30 07:29:55;;;;;;;;;;;10.70;60.90;;;;;;5010346;28;20016;-89
2022/12/30 07:32:20;;;;;;;;;;;10.70;60.80;;;;;;5011885;28;19921;-88
2022/12/30 07:34:46;;;;;;;;;;;10.70;60.70;;;;;;5004407;28;19968;-89
2022/12/30 07:37:11;;;;;;;;;;;10.70;60.80;;;;;;5000266;28;19925;-88
2022/12/30 07:39:38;;;;;;;;;;;10.70;60.90;;;;;;5009036;28;20407;-90
2022/12/30 07:42:03;;;;;;;;;;;10.80;60.90;;;;;;5012814;28;20384;-89
2022/12/30 07:44:29;;;;;;;;;;;10.80;60.90;;;;;;5007213;28;20387;-89
2022/12/30 07:46:55;;;;;;;;;;;10.80;61.00;;;;;;5008440;28;20552;-89
2022/12/30 07:49:21;;;;;;;;;;;10.80;61.10;;;;;;5009353;28;19923;-89
2022/12/30 07:51:46;;;;;;;;;;;10.90;61.30;;;;;;5006358;28;19926;-89
2022/12/30 07:54:12;;;;;;;;;;;11.10;61.40;;;;;;5009461;28;19936;-90
2022/12/30 07:56:37;;;;;;;;;;;11.20;61.40;;;;;;5006391;28;19923;-89
2022/12/30 07:59:03;;;;;;;;;;;11.30;61.60;;;;;;5003605;28;19945;-88
2022/12/30 08:01:29;;;;;;;;;;;11.40;61.70;;;;;;4989315;28;19977;-89
2022/12/30 08:03:55;;;;;;;;;;;11.60;61.60;;;;;;5002901;28;19928;-89
2022/12/30 08:06:20;;;;;;;;;;;11.80;61.50;;;;;;5005501;28;19922;-91
2022/12/30 08:08:46;;;;;;;;;;;11.80;61.00;;;;;;5002354;28;19918;-90
2022/12/30 08:11:12;;;;;;;;;;;11.90;61.00;;;;;;4997762;28;19980;-91
2022/12/30 08:13:38;;;;;;;;;;;12.00;61.50;;;;;;5005541;28;19913;-88
2022/12/30 08:16:05;;;;;;;;;;;12.20;62.00;;;;;;5006962;28;19997;-89
2022/12/30 08:18:30;;;;;;;;;;;12.30;61.90;;;;;;5007055;28;19925;-91
2022/12/30 08:20:58;;;;;;;;;;;12.50;61.70;;;;;;4998224;28;19921;-88
2022/12/30 08:23:23;;;;;;;;;;;12.70;61.70;;;;;;5006995;28;20412;-90
2022/12/30 08:25:49;;;;;;;;;;;12.80;61.70;;;;;;5008542;28;19928;-90
2022/12/30 08:28:14;;;;;;;;;;;12.90;61.50;;;;;;5006407;28;19921;-90
2022/12/30 08:30:40;;;;;;;;;;;13.00;61.40;;;;;;4995375;28;19918;-89
2022/12/30 08:33:05;;;;;;;;;;;13.10;61.10;;;;;;5005539;28;20309;-88
2022/12/30 08:35:31;;;;;;;;;;;13.30;60.50;;;;;;5002683;28;20307;-89
2022/12/30 08:37:56;;;;;;;;;;;13.30;59.90;;;;;;5005305;28;19928;-90
2022/12/30 08:40:22;;;;;;;;;;;13.30;60.50;;;;;;5004998;28;19925;-90
2022/12/30 08:42:47;;;;;;;;;;;13.40;60.20;;;;;;5004865;28;20020;-87
2022/12/30 08:45:13;;;;;;;;;;;13.50;59.80;;;;;;5003003;28;20404;-89
2022/12/30 08:47:38;;;;;;;;;;;13.50;59.70;;;;;;5006110;28;19921;-90
2022/12/30 08:50:04;;;;;;;;;;;13.60;59.90;;;;;;5005450;28;19918;-89
2022/12/30 08:52:30;;;;;;;;;;;13.70;59.70;;;;;;5004380;28;19921;-88
2022/12/30 08:54:55;;;;;;;;;;;13.70;58.60;;;;;;5004922;28;19971;-91
2022/12/30 08:57:20;;;;;;;;;;;13.70;59.00;;;;;;5003407;28;19948;-89
2022/12/30 08:59:46;;;;;;;;;;;13.70;59.00;;;;;;5000302;28;20257;-88
2022/12/30 09:02:12;;;;;;;;;;;13.70;59.10;;;;;;4995772;28;19918;-89
2022/12/30 09:04:37;;;;;;;;;;;13.70;59.10;;;;;;5025528;28;19928;-88
2022/12/30 09:07:03;;;;;;;;;;;13.80;59.00;;;;;;4999969;28;19975;-90
2022/12/30 09:09:29;;;;;;;;;;;13.80;58.70;;;;;;4999398;28;19924;-90
2022/12/30 09:11:55;;;;;;;;;;;13.80;58.50;;;;;;5004333;28;19956;-90
2022/12/30 09:14:20;;;;;;;;;;;13.80;58.10;;;;;;4999655;28;20015;-90
2022/12/30 09:16:46;;;;;;;;;;;13.80;57.90;;;;;;5006196;28;20009;-88
2022/12/30 09:19:11;;;;;;;;;;;13.90;58.00;;;;;;5003611;28;20408;-88
2022/12/30 09:21:37;;;;;;;;;;;13.90;57.80;;;;;;5001470;28;20495;-89
2022/12/30 09:24:02;;;;;;;;;;;13.90;57.00;;;;;;5004160;28;20584;-89
2022/12/30 09:26:28;;;;;;;;;;;14.00;57.30;;;;;;5016602;28;19928;-90
2022/12/30 09:28:54;;;;;;;;;;;14.00;57.70;;;;;;5006852;28;20026;-91
2022/12/30 09:31:20;;;;;;;;;;;14.00;57.60;;;;;;5001777;28;19924;-90
2022/12/30 09:33:45;;;;;;;;;;;14.00;56.90;;;;;;5006992;28;20308;-88
2022/12/30 09:36:11;;;;;;;;;;;14.10;56.30;;;;;;4989449;28;19929;-88
2022/12/30 09:38:36;;;;;;;;;;;14.10;55.90;;;;;;5002229;28;19913;-88
2022/12/30 09:43:14;;;;;;;;;;;14.00;55.20;;;;;;4999089;28;19921;-89
2022/12/30 09:44:11;;;;;;;;;;;14.00;55.40;;;;;;5002595;28;20495;-89
2022/12/30 09:46:40;;;;;;;;;;;14.20;56.50;;;;;;5009764;28;20013;-88
2022/12/30 09:49:21;;;;;;;;;;;14.10;56.20;;;;;;4994258;28;19917;-88
2022/12/30 09:51:51;;;;;;;;;;;14.20;57.00;;;;;;5002424;28;19932;-89
2022/12/30 09:54:20;;;;;;;;;;;14.20;56.40;;;;;;5004058;28;19921;-88
2022/12/30 09:56:47;;;;;;;;;;;14.20;55.90;;;;;;5004649;28;19921;-89
2022/12/30 09:59:15;;;;;;;;;;;14.20;55.30;;;;;;4991153;28;20007;-88
2022/12/30 10:01:43;;;;;;;;;;;14.30;55.30;;;;;;5008684;28;19936;-91
2022/12/30 10:04:13;;;;;;;;;;;14.30;55.90;;;;;;5013093;28;19917;-89
2022/12/30 10:06:43;;;;;;;;;;;14.40;55.60;;;;;;5005785;28;19917;-89
2022/12/30 10:09:35;;;;;;;;;;;14.40;56.00;;;;;;5004300;28;20518;-89
2022/12/30 10:12:13;;;;;;;;;;;14.40;55.90;;;;;;4999954;28;20039;-89
2022/12/30 10:14:39;;;;;;;;;;;14.40;55.40;;;;;;5005123;28;20353;-90
2022/12/30 10:17:22;;;;;;;;;;;14.50;56.10;;;;;;5012309;28;19929;-89
2022/12/30 10:19:54;;;;;;;;;;;14.60;55.90;;;;;;5013841;28;19921;-88
2022/12/30 10:22:19;;;;;;;;;;;14.60;56.40;;;;;;5001674;28;19922;-89
2022/12/30 10:25:04;;;;;;;;;;;14.60;55.40;;;;;;5001577;28;20364;-87
2022/12/30 10:27:41;;;;;;;;;;;14.70;55.40;;;;;;5004786;28;19948;-88
2022/12/30 10:30:12;;;;;;;;;;;14.70;55.60;;;;;;5002745;28;19923;-88
2022/12/30 10:32:39;;;;;;;;;;;14.70;55.40;;;;;;5001708;28;19921;-88
2022/12/30 10:35:13;;;;;;;;;;;14.70;54.90;;;;;;4993139;28;19925;-89
2022/12/30 10:37:38;;;;;;;;;;;14.70;55.50;;;;;;5005108;28;19960;-88
2022/12/30 10:40:09;;;;;;;;;;;14.80;55.60;;;;;;4989769;28;19960;-88
2022/12/30 10:43:00;;;;;;;;;;;14.80;55.00;;;;;;5005258;28;19922;-89
2022/12/30 10:45:35;;;;;;;;;;;14.80;55.20;;;;;;4982144;28;19918;-89
2022/12/30 10:48:03;;;;;;;;;;;14.80;55.70;;;;;;5008895;28;19917;-89
2022/12/30 10:50:34;;;;;;;;;;;14.80;55.80;;;;;;5005674;28;19993;-89
2022/12/30 10:53:01;;;;;;;;;;;14.80;54.90;;;;;;5005918;28;20373;-89
2022/12/30 10:55:28;;;;;;;;;;;14.80;54.30;;;;;;5005781;28;20666;-89
2022/12/30 10:58:05;;;;;;;;;;;14.80;54.90;;;;;;5003710;28;20626;-90
2022/12/30 11:00:39;;;;;;;;;;;14.80;55.00;;;;;;4998390;28;20436;-90
2022/12/30 11:03:14;;;;;;;;;;;14.80;54.60;;;;;;4995156;28;19921;-88
2022/12/30 11:05:39;;;;;;;;;;;14.80;54.80;;;;;;5005338;28;19968;-90
2022/12/30 11:08:18;;;;;;;;;;;14.80;55.20;;;;;;5004996;28;19957;-90
2022/12/30 11:10:56;;;;;;;;;;;14.80;54.70;;;;;;5002521;28;19949;-89
2022/12/30 11:16:06;;;;;;;;;;;15.00;55.00;;;;;;5002374;28;20001;-89
2022/12/30 11:18:32;;;;;;;;;;;15.10;55.50;;;;;;5005470;28;19917;-88
2022/12/30 11:20:59;;;;;;;;;;;15.20;56.00;;;;;;5000022;28;20016;-89
2022/12/30 11:23:27;;;;;;;;;;;15.20;55.50;;;;;;5007266;28;20398;-89
2022/12/30 11:25:53;;;;;;;;;;;15.30;54.60;;;;;;5006539;28;19944;-89
2022/12/30 11:28:23;;;;;;;;;;;15.20;53.70;;;;;;5011845;28;19921;-88
2022/12/30 11:30:51;;;;;;;;;;;15.30;54.60;;;;;;5003937;28;19917;-90
2022/12/30 11:33:23;;;;;;;;;;;15.30;55.10;;;;;;5008952;28;19967;-89
2022/12/30 11:35:49;;;;;;;;;;;15.40;54.60;;;;;;5008787;28;19922;-89
2022/12/30 11:38:34;;;;;;;;;;;15.40;54.30;;;;;;5007686;28;20873;-90
2022/12/30 11:41:17;;;;;;;;;;;15.50;54.30;;;;;;5019228;28;19921;-88
2022/12/30 11:43:44;;;;;;;;;;;15.60;54.10;;;;;;5025586;28;19917;-89
2022/12/30 11:46:11;;;;;;;;;;;15.60;53.80;;;;;;5013249;28;19925;-91
2022/12/30 11:48:39;;;;;;;;;;;15.70;54.30;;;;;;5010250;28;19918;-90
2022/12/30 11:51:25;;;;;;;;;;;15.70;53.20;;;;;;4999600;28;20007;-90
2022/12/30 11:54:02;;;;;;;;;;;15.70;52.70;;;;;;5007283;28;19929;-88
2022/12/30 11:56:27;;;;;;;;;;;15.70;51.80;;;;;;5006292;28;20511;-90
2022/12/30 11:58:53;;;;;;;;;;;15.60;51.20;;;;;;5005970;28;19947;-88
2022/12/30 12:01:19;;;;;;;;;;;15.70;51.60;;;;;;5005470;28;19948;-90
2022/12/30 12:03:48;;;;;;;;;;;15.70;51.90;;;;;;5008370;28;20020;-90
2022/12/30 12:06:13;;;;;;;;;;;15.70;51.80;;;;;;5007458;28;19957;-89
2022/12/30 12:08:45;;;;;;;;;;;15.70;52.50;;;;;;5007137;28;19960;-91
2022/12/30 12:11:19;;;;;;;;;;;15.70;52.20;;;;;;5004607;28;19960;-89
2022/12/30 12:13:47;;;;;;;;;;;15.70;51.70;;;;;;5010025;28;19917;-91
2022/12/30 12:16:33;;;;;;;;;;;15.70;52.20;;;;;;5019005;23;20063;-90
2022/12/30 12:19:05;;;;;;;;;;;15.70;52.10;;;;;;4985752;28;19922;-90
2022/12/30 12:21:30;;;;;;;;;;;15.50;51.40;;;;;;4999405;28;19925;-91
2022/12/30 12:23:56;;;;;;;;;;;15.40;50.90;;;;;;4999401;28;19918;-91
2022/12/30 12:26:23;;;;;;;;;;;15.50;51.90;;;;;;4986381;28;20000;-92
2022/12/30 12:28:50;;;;;;;;;;;15.50;51.70;;;;;;4987771;28;19922;-90
2022/12/30 12:31:24;;;;;;;;;;;15.50;51.60;;;;;;4995274;28;19918;-90
2022/12/30 12:34:12;;;;;;;;;;;15.50;52.10;;;;;;4993102;28;19926;-91
2022/12/30 12:37:04;;;;;;;;;;;15.50;52.20;;;;;;4989292;28;19926;-91
2022/12/30 12:39:48;;;;;;;;;;;15.40;51.40;;;;;;4981437;28;20423;-91
2022/12/30 12:42:15;;;;;;;;;;;15.40;51.30;;;;;;5006322;28;20351;-89
2022/12/30 12:44:52;;;;;;;;;;;15.30;51.20;;;;;;4992096;28;19922;-89
2022/12/30 12:47:36;;;;;;;;;;;15.30;51.10;;;;;;4988340;28;19968;-88
2022/12/30 12:50:01;;;;;;;;;;;15.30;51.70;;;;;;4983818;28;20657;-89
2022/12/30 12:52:35;;;;;;;;;;;15.30;51.60;;;;;;5009845;28;19951;-91
2022/12/30 12:55:18;;;;;;;;;;;15.40;52.20;;;;;;5003334;28;19936;-90
2022/12/30 12:58:00;;;;;;;;;;;15.40;52.00;;;;;;4986967;28;21287;-90
2022/12/30 13:00:33;;;;;;;;;;;15.30;51.90;;;;;;4999833;28;20383;-90
2022/12/30 13:02:58;;;;;;;;;;;15.30;52.20;;;;;;5003622;28;19921;-89
2022/12/30 13:05:37;;;;;;;;;;;15.40;52.50;;;;;;4984114;28;19918;-90
2022/12/30 13:08:21;;;;;;;;;;;15.30;52.40;;;;;;4986827;28;19926;-90
2022/12/30 13:10:50;;;;;;;;;;;15.30;52.10;;;;;;4989585;28;19928;-90
2022/12/30 13:13:31;;;;;;;;;;;15.20;51.90;;;;;;5008066;28;20027;-92
2022/12/30 13:15:57;;;;;;;;;;;15.30;52.40;;;;;;4993549;28;20460;-91
2022/12/30 13:18:24;;;;;;;;;;;15.30;52.30;;;;;;4986219;28;19921;-91
2022/12/30 13:20:55;;;;;;;;;;;15.20;51.90;;;;;;4988884;28;19929;-90
2022/12/30 13:23:24;;;;;;;;;;;15.30;52.20;;;;;;5000174;28;20503;-90
2022/12/30 13:25:55;;;;;;;;;;;15.30;52.10;;;;;;4979411;28;19926;-90
2022/12/30 13:28:23;;;;;;;;;;;15.30;52.60;;;;;;4984350;28;19918;-91
2022/12/30 13:30:56;;;;;;;;;;;15.20;51.80;;;;;;4982190;28;20468;-91
2022/12/30 13:33:28;;;;;;;;;;;15.30;52.80;;;;;;4987078;28;19940;-91
2022/12/30 13:35:59;;;;;;;;;;;15.30;52.50;;;;;;4990742;28;19929;-89
2022/12/30 13:38:45;;;;;;;;;;;15.20;52.00;;;;;;4985901;28;19972;-91
2022/12/30 13:41:20;;;;;;;;;;;15.20;51.80;;;;;;4993781;28;19926;-90
2022/12/30 13:43:54;;;;;;;;;;;15.20;52.40;;;;;;4994896;28;20528;-91
2022/12/30 13:46:21;;;;;;;;;;;15.20;52.90;;;;;;4988908;28;19922;-89
2022/12/30 13:49:11;;;;;;;;;;;15.20;53.50;;;;;;4978753;28;19918;-89
2022/12/30 13:51:37;;;;;;;;;;;15.20;52.90;;;;;;4998178;28;19922;-90
2022/12/30 13:54:09;;;;;;;;;;;15.20;53.00;;;;;;4987121;28;19922;-89
2022/12/30 13:56:37;;;;;;;;;;;15.20;53.00;;;;;;4987695;28;19926;-89
2022/12/30 13:59:04;;;;;;;;;;;15.10;52.10;;;;;;4987507;28;19918;-89
2022/12/30 14:01:31;;;;;;;;;;;15.10;52.10;;;;;;4986680;28;19928;-90
2022/12/30 14:04:22;;;;;;;;;;;15.10;51.70;;;;;;4984987;28;19917;-91
2022/12/30 14:06:49;;;;;;;;;;;15.10;52.10;;;;;;4995096;28;20009;-89
2022/12/30 14:09:18;;;;;;;;;;;15.10;51.70;;;;;;4980445;28;19957;-92
2022/12/30 14:12:02;;;;;;;;;;;15.10;52.00;;;;;;4988096;28;20285;-89
2022/12/30 14:14:27;;;;;;;;;;;15.10;51.50;;;;;;4987089;28;19980;-89
2022/12/30 14:17:11;;;;;;;;;;;15.10;52.00;;;;;;5006652;28;19992;-91
2022/12/30 14:19:58;;;;;;;;;;;15.10;51.20;;;;;;4984261;28;19922;-91
2022/12/30 14:22:41;;;;;;;;;;;15.10;51.40;;;;;;4994194;28;20739;-90
2022/12/30 14:25:13;;;;;;;;;;;15.20;51.50;;;;;;4982088;28;19976;-91
2022/12/30 14:27:40;;;;;;;;;;;15.20;51.30;;;;;;4995428;28;19922;-90
2022/12/30 14:30:32;;;;;;;;;;;15.10;51.20;;;;;;4986723;28;20013;-90
2022/12/30 14:32:59;;;;;;;;;;;15.20;51.60;;;;;;4982479;28;20389;-90
2022/12/30 14:35:25;;;;;;;;;;;15.10;51.30;;;;;;4993353;28;20573;-90
2022/12/30 14:37:50;;;;;;;;;;;15.20;51.20;;;;;;4994599;28;19928;-89
2022/12/30 14:40:25;;;;;;;;;;;15.20;51.10;;;;;;4985010;28;19913;-91
2022/12/30 14:42:52;;;;;;;;;;;15.20;50.80;;;;;;4991502;28;19921;-89
2022/12/30 14:45:19;;;;;;;;;;;15.30;50.90;;;;;;4988293;28;19921;-89
2022/12/30 14:47:46;;;;;;;;;;;15.20;50.60;;;;;;4989677;28;20353;-90
2022/12/30 14:50:17;;;;;;;;;;;15.30;50.80;;;;;;4986580;28;20339;-89
2022/12/30 14:52:47;;;;;;;;;;;15.30;50.70;;;;;;4991095;28;20718;-90
2022/12/30 14:55:27;;;;;;;;;;;15.30;50.90;;;;;;4989414;28;19930;-89
2022/12/30 14:58:02;;;;;;;;;;;15.10;50.70;;;;;;5010809;28;19969;-90
2022/12/30 15:00:29;;;;;;;;;;;15.20;50.90;;;;;;4992265;28;20389;-91
2022/12/30 15:02:56;;;;;;;;;;;15.20;50.90;;;;;;4989617;28;19922;-91
2022/12/30 15:05:22;;;;;;;;;;;15.30;51.10;;;;;;5000090;28;20482;-90
2022/12/30 15:07:53;;;;;;;;;;;15.30;51.10;;;;;;4992958;28;20362;-90
2022/12/30 15:10:28;;;;;;;;;;;15.30;51.00;;;;;;4990032;28;19917;-89
2022/12/30 15:12:54;;;;;;;;;;;15.20;51.30;;;;;;4988579;28;19928;-90
2022/12/30 15:15:25;;;;;;;;;;;15.10;52.70;;;;;;4997127;28;19925;-91